Terminal Aerodrome Forecast
Issued by NWS Rapid City, SD

Home | Current Version | Previous Version | Text Only | Print | Product List | Glossary On
Versions: 1 2 3 4 5 6 7 8 9 10 11 12 13 14 15 16
000
FTUS43 KUNR 200520
TAFRAP
TAF
KRAP 200520Z 2006/2106 VRB04KT 6SM -RASN SCT015 OVC025
      TEMPO 2006/2010 BKN015
     FM201400 08005KT P6SM SCT025 BKN050
     FM201700 09010KT P6SM BKN080=

USA.gov is the U.S. government's official web portal to all federal, state and local government web resources and services.